Mar Maria — 9HA2859 — position and weather

sailwx.info

Track history (hours):
 
Tides and Currents Weather Stations Pressure Air Temp Water Temp Dewpoint Dewpoint Depression Visibility Wind Speed Wind Dir Waves Ship Positions

Mar Maria

Last reported at 2015-Mar-03 09:19 UTC. Time now 2015-Mar-03 22:38 UTC.
Position N 37°06' W 009°44'.

Length 103 m; draft 5.6 m.

Type: Ship (hazmat cat B). MMSI: 256435000.

Date/timePositionNaut miles runAvg speedWind from/ knotsBaromVisibWave heightAir tempDewpointWater temp
2015-Mar-03 09:19N 37°06' W 009°44'3 3.4
2015-Mar-03 08:20N 37°09' W 009°46'3 3.5
2015-Mar-03 07:33N 37°12' W 009°45'6710.5
2015-Mar-03 01:13N 38°17' W 010°04'710.8
2015-Mar-03 00:34N 38°24' W 010°06'  
2015-Feb-27 00:14N 50°21' W 001°32'6 8.4
2015-Feb-26 23:33N 50°24' W 001°24'9 9.3
2015-Feb-26 22:33N 50°28' W 001°11'9 9.5
2015-Feb-26 21:34N 50°35' W 001°00'1010.1
2015-Feb-26 20:34N 50°44' W 001°05'9 9.3
2015-Feb-26 19:34N 50°49' W 001°18'2 1.6
2015-Feb-26 18:13N 50°50' W 001°20'0 0.0
2015-Feb-26 14:19N 50°50' W 001°20'0 0.0
2015-Feb-26 10:19N 50°50' W 001°20'0 0.0
2015-Feb-26 09:31N 50°50' W 001°20'0 0.0
2015-Feb-26 07:31N 50°50' W 001°20'0 0.0
2015-Feb-26 03:17N 50°50' W 001°20'0 0.4
2015-Feb-26 02:33N 50°50' W 001°19'9 8.7
2015-Feb-26 01:33N 50°46' W 001°08'5 4.7
2015-Feb-26 00:31N 50°43' W 001°02'0 0.0
2015-Feb-25 23:31N 50°43' W 001°02'0 0.0
2015-Feb-25 22:31N 50°43' W 001°02'0 0.0
2015-Feb-25 21:31N 50°43' W 001°02'0 0.1
2015-Feb-25 20:31N 50°43' W 001°02'0 0.0
2015-Feb-25 19:31N 50°43' W 001°02'0 0.1
2015-Feb-25 18:31N 50°43' W 001°02'0 0.0
2015-Feb-25 17:31N 50°43' W 001°02'0 0.0
2015-Feb-25 16:31N 50°43' W 001°02'0 0.0
2015-Feb-25 15:31N 50°43' W 001°02'0 0.0
2015-Feb-25 14:31N 50°43' W 001°02'0 0.1
2015-Feb-25 13:31N 50°43' W 001°02'0 0.0
2015-Feb-25 12:31N 50°43' W 001°02'0 0.0
2015-Feb-25 11:31N 50°43' W 001°02'0 0.0
2015-Feb-25 10:31N 50°43' W 001°02'0 0.0
2015-Feb-25 09:31N 50°43' W 001°02'0 0.0
2015-Feb-25 08:31N 50°43' W 001°02'0 0.0
2015-Feb-25 07:31N 50°43' W 001°02'0 0.1
2015-Feb-25 06:31N 50°43' W 001°02'0 0.0
2015-Feb-25 05:31N 50°43' W 001°02'0 0.0
2015-Feb-25 04:31N 50°43' W 001°02'0 0.1
2015-Feb-25 03:31N 50°43' W 001°02'0 0.0
2015-Feb-25 02:31N 50°43' W 001°02'0 0.0
2015-Feb-25 01:31N 50°43' W 001°02'0 0.0
2015-Feb-25 00:31N 50°43' W 001°02'0 0.0
2015-Feb-24 23:31N 50°43' W 001°02'0 0.0
2015-Feb-24 22:31N 50°43' W 001°02'0 0.0
2015-Feb-24 21:31N 50°43' W 001°02'0 0.0
2015-Feb-24 20:31N 50°43' W 001°02'0 0.0
2015-Feb-24 19:31N 50°43' W 001°02'0 0.0
2015-Feb-24 18:31N 50°43' W 001°02'0 0.0
2015-Feb-24 17:31N 50°43' W 001°02'0 0.0
2015-Feb-24 16:31N 50°43' W 001°02'0 0.0
2015-Feb-24 15:31N 50°43' W 001°02'2 2.4
2015-Feb-24 14:33N 50°43' W 000°58'7 6.8
2015-Feb-24 13:34N 50°37' W 000°51'7 6.6
2015-Feb-24 12:34N 50°36' W 000°41'5 5.4
2015-Feb-24 11:34N 50°35' W 000°33'5 5.4
2015-Feb-24 10:33N 50°33' W 000°25'7 6.6
2015-Feb-24 09:32N 50°32' W 000°14'10 7.8
2015-Feb-24 08:17N 50°30' E 000°01'14 7.8
2015-Feb-24 06:33N 50°33' E 000°21'7 6.9
2015-Feb-24 05:33N 50°35' E 000°32'6 6.0
2015-Feb-24 04:33N 50°38' E 000°40'6 5.5
2015-Feb-24 03:33N 50°41' E 000°47'5 5.1
2015-Feb-24 02:33N 50°44' E 000°54'5 4.7
2015-Feb-24 01:33N 50°47' E 000°60'5 4.7
2015-Feb-24 00:33N 50°49' E 001°06'6 5.7
2015-Feb-23 23:33N 50°53' E 001°13'7 7.5
2015-Feb-23 22:33N 50°58' E 001°22'10 9.9
2015-Feb-23 21:34N 51°05' E 001°32'1110.6
2015-Feb-23 20:34N 51°13' E 001°44'9 9.0
2015-Feb-23 19:34N 51°20' E 001°52'8 8.0
2015-Feb-23 18:33N 51°27' E 001°59'8 7.7
2015-Feb-23 17:34N 51°33' E 002°06'8 7.7
2015-Feb-23 16:34N 51°39' E 002°14'40 8.1
2015-Feb-23 11:33N 51°50' E 003°17'1211.5
2015-Feb-23 10:30N 51°55' E 003°35'1 0.3
2015-Feb-23 08:26N 51°55' E 003°36'4 4.9
2015-Feb-23 07:30N 51°53' E 003°30'6 6.6
2015-Feb-23 06:32N 51°51' E 003°20'2 2.2
2015-Feb-23 05:33N 51°50' E 003°16'5 5.0
2015-Feb-23 04:32N 51°51' E 003°25'4 3.9
2015-Feb-23 03:32N 51°53' E 003°30'3 2.9
2015-Feb-23 02:33N 51°52' E 003°26'7 6.8
2015-Feb-23 01:32N 51°50' E 003°15'6 5.9
2015-Feb-23 00:32N 51°49' E 003°06'6 5.3
2015-Feb-22 23:23N 51°48' E 002°56'3 3.3
2015-Feb-22 22:20N 51°48' E 003°02'5 6.3
2015-Feb-22 21:33N 51°49' E 003°09'6 6.1
2015-Feb-22 20:33N 51°51' E 003°18'7 6.8
2015-Feb-22 19:33N 51°53' E 003°29'5 4.0
2015-Feb-22 18:24N 51°55' E 003°36'0 0.0
2015-Feb-22 10:33N 51°55' E 003°36'0 0.0
2015-Feb-22 09:33N 51°55' E 003°36'0 0.0
2015-Feb-22 04:33N 51°55' E 003°36'0 0.0
2015-Feb-22 02:09N 51°55' E 003°36'0 0.1
2015-Feb-22 00:18N 51°55' E 003°36'0 0.0
2015-Feb-21 22:21N 51°55' E 003°36'0 0.0
2015-Feb-21 21:33N 51°55' E 003°36'0 0.0
2015-Feb-21 20:05N 51°55' E 003°36'0 0.1
2015-Feb-21 19:29N 51°55' E 003°36'0 0.0
2015-Feb-21 17:20N 51°55' E 003°36'0 0.0
2015-Feb-21 15:32N 51°55' E 003°36'0 0.0
2015-Feb-21 14:26N 51°55' E 003°36'0 0.1
2015-Feb-21 13:17N 51°55' E 003°36'0 0.1
2015-Feb-21 12:26N 51°55' E 003°36'0 0.1
2015-Feb-21 11:29N 51°55' E 003°36'0 0.0
2015-Feb-21 10:29N 51°55' E 003°36'0 0.0
2015-Feb-21 09:20N 51°55' E 003°36'  
Track history (hours):
 
Tides and Currents Weather Stations Pressure Air Temp Water Temp Dewpoint Dewpoint Depression Visibility Wind Speed Wind Dir Waves Ship Positions

Mar Maria

Last reported at 2015-Mar-03 09:19 UTC. Time now 2015-Mar-03 22:38 UTC.
Position N 37°06' W 009°44'.

Length 103 m; draft 5.6 m.

Type: Ship (hazmat cat B). MMSI: 256435000.

Date/timePositionNaut miles runAvg speedWind from/ knotsBaromVisibWave heightAir tempDewpointWater temp
2015-Mar-03 09:19N 37°06' W 009°44'3 3.4
2015-Mar-03 08:20N 37°09' W 009°46'3 3.5
2015-Mar-03 07:33N 37°12' W 009°45'6710.5
2015-Mar-03 01:13N 38°17' W 010°04'710.8
2015-Mar-03 00:34N 38°24' W 010°06'  
2015-Feb-27 00:14N 50°21' W 001°32'6 8.4
2015-Feb-26 23:33N 50°24' W 001°24'9 9.3
2015-Feb-26 22:33N 50°28' W 001°11'9 9.5
2015-Feb-26 21:34N 50°35' W 001°00'1010.1
2015-Feb-26 20:34N 50°44' W 001°05'9 9.3
2015-Feb-26 19:34N 50°49' W 001°18'2 1.6
2015-Feb-26 18:13N 50°50' W 001°20'0 0.0
2015-Feb-26 14:19N 50°50' W 001°20'0 0.0
2015-Feb-26 10:19N 50°50' W 001°20'0 0.0
2015-Feb-26 09:31N 50°50' W 001°20'0 0.0
2015-Feb-26 07:31N 50°50' W 001°20'0 0.0
2015-Feb-26 03:17N 50°50' W 001°20'0 0.4
2015-Feb-26 02:33N 50°50' W 001°19'9 8.7
2015-Feb-26 01:33N 50°46' W 001°08'5 4.7
2015-Feb-26 00:31N 50°43' W 001°02'0 0.0
2015-Feb-25 23:31N 50°43' W 001°02'0 0.0
2015-Feb-25 22:31N 50°43' W 001°02'0 0.0
2015-Feb-25 21:31N 50°43' W 001°02'0 0.1
2015-Feb-25 20:31N 50°43' W 001°02'0 0.0
2015-Feb-25 19:31N 50°43' W 001°02'0 0.1
2015-Feb-25 18:31N 50°43' W 001°02'0 0.0
2015-Feb-25 17:31N 50°43' W 001°02'0 0.0
2015-Feb-25 16:31N 50°43' W 001°02'0 0.0
2015-Feb-25 15:31N 50°43' W 001°02'0 0.0
2015-Feb-25 14:31N 50°43' W 001°02'0 0.1
2015-Feb-25 13:31N 50°43' W 001°02'0 0.0
2015-Feb-25 12:31N 50°43' W 001°02'0 0.0
2015-Feb-25 11:31N 50°43' W 001°02'0 0.0
2015-Feb-25 10:31N 50°43' W 001°02'0 0.0
2015-Feb-25 09:31N 50°43' W 001°02'0 0.0
2015-Feb-25 08:31N 50°43' W 001°02'0 0.0
2015-Feb-25 07:31N 50°43' W 001°02'0 0.1
2015-Feb-25 06:31N 50°43' W 001°02'0 0.0
2015-Feb-25 05:31N 50°43' W 001°02'0 0.0
2015-Feb-25 04:31N 50°43' W 001°02'0 0.1
2015-Feb-25 03:31N 50°43' W 001°02'0 0.0
2015-Feb-25 02:31N 50°43' W 001°02'0 0.0
2015-Feb-25 01:31N 50°43' W 001°02'0 0.0
2015-Feb-25 00:31N 50°43' W 001°02'0 0.0
2015-Feb-24 23:31N 50°43' W 001°02'0 0.0
2015-Feb-24 22:31N 50°43' W 001°02'0 0.0
2015-Feb-24 21:31N 50°43' W 001°02'0 0.0
2015-Feb-24 20:31N 50°43' W 001°02'0 0.0
2015-Feb-24 19:31N 50°43' W 001°02'0 0.0
2015-Feb-24 18:31N 50°43' W 001°02'0 0.0
2015-Feb-24 17:31N 50°43' W 001°02'0 0.0
2015-Feb-24 16:31N 50°43' W 001°02'0 0.0
2015-Feb-24 15:31N 50°43' W 001°02'2 2.4
2015-Feb-24 14:33N 50°43' W 000°58'7 6.8
2015-Feb-24 13:34N 50°37' W 000°51'7 6.6
2015-Feb-24 12:34N 50°36' W 000°41'5 5.4
2015-Feb-24 11:34N 50°35' W 000°33'5 5.4
2015-Feb-24 10:33N 50°33' W 000°25'7 6.6
2015-Feb-24 09:32N 50°32' W 000°14'10 7.8
2015-Feb-24 08:17N 50°30' E 000°01'14 7.8
2015-Feb-24 06:33N 50°33' E 000°21'7 6.9
2015-Feb-24 05:33N 50°35' E 000°32'6 6.0
2015-Feb-24 04:33N 50°38' E 000°40'6 5.5
2015-Feb-24 03:33N 50°41' E 000°47'5 5.1
2015-Feb-24 02:33N 50°44' E 000°54'5 4.7
2015-Feb-24 01:33N 50°47' E 000°60'5 4.7
2015-Feb-24 00:33N 50°49' E 001°06'6 5.7
2015-Feb-23 23:33N 50°53' E 001°13'7 7.5
2015-Feb-23 22:33N 50°58' E 001°22'10 9.9
2015-Feb-23 21:34N 51°05' E 001°32'1110.6
2015-Feb-23 20:34N 51°13' E 001°44'9 9.0
2015-Feb-23 19:34N 51°20' E 001°52'8 8.0
2015-Feb-23 18:33N 51°27' E 001°59'8 7.7
2015-Feb-23 17:34N 51°33' E 002°06'8 7.7
2015-Feb-23 16:34N 51°39' E 002°14'40 8.1
2015-Feb-23 11:33N 51°50' E 003°17'1211.5
2015-Feb-23 10:30N 51°55' E 003°35'1 0.3
2015-Feb-23 08:26N 51°55' E 003°36'4 4.9
2015-Feb-23 07:30N 51°53' E 003°30'6 6.6
2015-Feb-23 06:32N 51°51' E 003°20'2 2.2
2015-Feb-23 05:33N 51°50' E 003°16'5 5.0
2015-Feb-23 04:32N 51°51' E 003°25'4 3.9
2015-Feb-23 03:32N 51°53' E 003°30'3 2.9
2015-Feb-23 02:33N 51°52' E 003°26'7 6.8
2015-Feb-23 01:32N 51°50' E 003°15'6 5.9
2015-Feb-23 00:32N 51°49' E 003°06'6 5.3
2015-Feb-22 23:23N 51°48' E 002°56'3 3.3
2015-Feb-22 22:20N 51°48' E 003°02'5 6.3
2015-Feb-22 21:33N 51°49' E 003°09'6 6.1
2015-Feb-22 20:33N 51°51' E 003°18'7 6.8
2015-Feb-22 19:33N 51°53' E 003°29'5 4.0
2015-Feb-22 18:24N 51°55' E 003°36'0 0.0
2015-Feb-22 10:33N 51°55' E 003°36'0 0.0
2015-Feb-22 09:33N 51°55' E 003°36'0 0.0
2015-Feb-22 04:33N 51°55' E 003°36'0 0.0
2015-Feb-22 02:09N 51°55' E 003°36'0 0.1
2015-Feb-22 00:18N 51°55' E 003°36'0 0.0
2015-Feb-21 22:21N 51°55' E 003°36'0 0.0
2015-Feb-21 21:33N 51°55' E 003°36'0 0.0
2015-Feb-21 20:05N 51°55' E 003°36'0 0.1
2015-Feb-21 19:29N 51°55' E 003°36'0 0.0
2015-Feb-21 17:20N 51°55' E 003°36'0 0.0
2015-Feb-21 15:32N 51°55' E 003°36'0 0.0
2015-Feb-21 14:26N 51°55' E 003°36'0 0.1
2015-Feb-21 13:17N 51°55' E 003°36'0 0.1
2015-Feb-21 12:26N 51°55' E 003°36'0 0.1
2015-Feb-21 11:29N 51°55' E 003°36'0 0.0
2015-Feb-21 10:29N 51°55' E 003°36'0 0.0
2015-Feb-21 09:20N 51°55' E 003°36'  

Dump ship's entire track history